^^
Meteo Knjazevac Station Historical Data
Daily Summary for April 5, 2021 Units:  Metric    English   Both
Daily Weekly Monthly Yearly Custom
  High: Low: Average:
Temperature: 33 °C 16.1 °C 22.6 °C
Dew Point: 21.6 °C 13.4 °C 16.7 °C
Humidity: 85% 48% 71%
Wind Speed: 14.5km/h 0km/h 3.1km/h
Wind Gust: 20.9km/h - -
Wind- - South
Pressure: 1015.8 hPa 1008 hPa -
Precipitation: 0 mm    
Historical Graphs
 
 
Tabular Data for April 5, 2021
Time Temperature Dew Point Pressure Wind Wind Speed Wind Gust Humidity Rainfall Rate (Hourly) solar Conditions
00:00 20.4 °C 15.4 °C 1015.8 hPa NNW 1.6 km/h 3.2 km/h 73% 0 mm 0 W/m2
00:10 20.3 °C 15.5 °C 1015.8 hPa WNW 1.6 km/h 4.8 km/h 74% 0 mm 0 W/m2
00:20 19.9 °C 15.1 °C 1015.8 hPa WSW 3.2 km/h 4.8 km/h 74% 0 mm 0 W/m2
00:30 19.7 °C 14.7 °C 1015.8 hPa West 1.6 km/h 4.8 km/h 73% 0 mm 0 W/m2
00:40 19.5 °C 14.7 °C 1015.5 hPa WNW 1.6 km/h 3.2 km/h 74% 0 mm 0 W/m2
00:50 19.5 °C 14.7 °C 1015.5 hPa West 1.6 km/h 3.2 km/h 74% 0 mm 0 W/m2
01:00 19.4 °C 15.3 °C 1015.5 hPa Calm   3.2 km/h 77% 0 mm 0 W/m2
01:10 19.3 °C 14.8 °C 1015.5 hPa West 1.6 km/h 4.8 km/h 75% 0 mm 0 W/m2
01:20 19.1 °C 14.9 °C 1015.5 hPa Calm   3.2 km/h 77% 0 mm 0 W/m2
01:30 18.9 °C 14.8 °C 1015.5 hPa Calm   3.2 km/h 77% 0 mm 0 W/m2
01:40 18.8 °C 14.7 °C 1015.5 hPa NNW 1.6 km/h 4.8 km/h 77% 0 mm 0 W/m2
01:50 18.8 °C 14.8 °C 1015.5 hPa Calm   3.2 km/h 78% 0 mm 0 W/m2
02:00 18.6 °C 14.7 °C 1015.5 hPa NNW 1.6 km/h 3.2 km/h 78% 0 mm 0 W/m2
02:10 18.4 °C 14.7 °C 1015.5 hPa Calm   3.2 km/h 79% 0 mm 0 W/m2
02:20 18.1 °C 14.4 °C 1015.1 hPa Calm   3.2 km/h 79% 0 mm 0 W/m2
02:30 17.9 °C 14.4 °C 1015.1 hPa Calm   3.2 km/h 80% 0 mm 0 W/m2
02:40 17.8 °C 14.3 °C 1015.1 hPa WNW 1.6 km/h 3.2 km/h 80% 0 mm 0 W/m2
02:50 17.6 °C 14.1 °C 1015.1 hPa WSW 1.6 km/h 3.2 km/h 80% 0 mm 0 W/m2
03:00 17.3 °C 13.8 °C 1015.1 hPa WSW 1.6 km/h 3.2 km/h 80% 0 mm 0 W/m2
03:10 17.1 °C 13.6 °C 1015.1 hPa WNW 1.6 km/h 6.4 km/h 80% 0 mm 0 W/m2
03:20 17.1 °C 13.6 °C 1014.8 hPa WNW 1.6 km/h 4.8 km/h 80% 0 mm 0 W/m2
03:30 17 °C 13.5 °C 1014.8 hPa West 4.8 km/h 6.4 km/h 80% 0 mm 0 W/m2
03:40 16.9 °C 13.4 °C 1014.8 hPa Calm   6.4 km/h 80% 0 mm 0 W/m2
03:50 16.8 °C 13.5 °C 1014.8 hPa West 1.6 km/h 3.2 km/h 81% 0 mm 0 W/m2
04:00 16.6 °C 13.7 °C 1014.8 hPa WNW 1.6 km/h 3.2 km/h 83% 0 mm 0 W/m2
04:10 16.4 °C 13.6 °C 1014.4 hPa Calm   3.2 km/h 83% 0 mm 0 W/m2
04:20 16.3 °C 13.4 °C 1014.4 hPa Calm   1.6 km/h 83% 0 mm 0 W/m2
04:30 16.3 °C 13.6 °C 1014.4 hPa Calm   3.2 km/h 84% 0 mm 0 W/m2
04:40 16.2 °C 13.5 °C 1014.4 hPa WNW 1.6 km/h 3.2 km/h 84% 0 mm 0 W/m2
04:50 16.2 °C 13.5 °C 1014.4 hPa WNW 1.6 km/h 3.2 km/h 84% 0 mm 0 W/m2
05:00 16.1 °C 13.4 °C 1014.4 hPa Calm   6.4 km/h 84% 0 mm 0 W/m2
05:10 16.1 °C 13.4 °C 1014.4 hPa Calm   3.2 km/h 84% 0 mm 0 W/m2
05:20 16.1 °C 13.4 °C 1014.4 hPa Calm   3.2 km/h 84% 0 mm 0 W/m2
05:30 16.1 °C 13.6 °C 1014.4 hPa Calm   3.2 km/h 85% 0 mm 4 W/m2
05:40 16.1 °C 13.6 °C 1014.4 hPa Calm   3.2 km/h 85% 0 mm 7 W/m2
05:50 16.2 °C 13.7 °C 1014.1 hPa North 1.6 km/h 3.2 km/h 85% 0 mm 13 W/m2
06:00 16.3 °C 13.8 °C 1014.1 hPa NNE 1.6 km/h 4.8 km/h 85% 0 mm 22 W/m2
06:10 16.4 °C 13.9 °C 1014.1 hPa North 1.6 km/h 3.2 km/h 85% 0 mm 30 W/m2
06:20 16.4 °C 13.9 °C 1014.1 hPa West 1.6 km/h 3.2 km/h 85% 0 mm 38 W/m2
06:30 16.5 °C 13.9 °C 1014.1 hPa North 1.6 km/h 3.2 km/h 85% 0 mm 48 W/m2
06:40 16.6 °C 13.9 °C 1014.1 hPa Calm   3.2 km/h 84% 0 mm 87 W/m2
06:50 16.7 °C 13.9 °C 1014.1 hPa WNW 1.6 km/h 3.2 km/h 84% 0 mm 100 W/m2
07:00 16.8 °C 14.1 °C 1013.8 hPa Calm   3.2 km/h 84% 0 mm 147 W/m2
07:10 16.9 °C 14.2 °C 1014.1 hPa NNW 1.6 km/h 3.2 km/h 84% 0 mm 188 W/m2
07:20 17.2 °C 14.7 °C 1013.8 hPa NNE 1.6 km/h 6.4 km/h 85% 0 mm 221 W/m2
07:30 17.6 °C 14.8 °C 1013.8 hPa NNE 4.8 km/h 8 km/h 84% 0 mm 256 W/m2
07:40 17.8 °C 14.9 °C 1013.8 hPa Calm   4.8 km/h 83% 0 mm 284 W/m2
07:50 18.1 °C 14.7 °C 1013.4 hPa NE 1.6 km/h 6.4 km/h 81% 0 mm 319 W/m2
08:00 18.4 °C 15.3 °C 1013.4 hPa Calm   3.2 km/h 82% 0 mm 371 W/m2
08:10 18.8 °C 15.3 °C 1013.4 hPa WNW 1.6 km/h 6.4 km/h 80% 0 mm 414 W/m2
08:20 19.2 °C 15.5 °C 1013.4 hPa North 1.6 km/h 6.4 km/h 79% 0 mm 414 W/m2
08:30 19.7 °C 15.7 °C 1013.4 hPa Calm   9.7 km/h 78% 0 mm 459 W/m2
08:40 20.1 °C 16.2 °C 1013.1 hPa East 1.6 km/h 6.4 km/h 78% 0 mm 494 W/m2
08:50 20.7 °C 16.5 °C 1013.1 hPa SW 3.2 km/h 4.8 km/h 77% 0 mm 526 W/m2
09:00 21.2 °C 16.6 °C 1012.8 hPa WSW 1.6 km/h 4.8 km/h 75% 0 mm 559 W/m2
09:10 22.3 °C 17.3 °C 1012.8 hPa Calm   4.8 km/h 73% 0 mm 593 W/m2
09:20 23.3 °C 17.9 °C 1012.4 hPa WSW 1.6 km/h 3.2 km/h 72% 0 mm 624 W/m2
09:30 24.3 °C 18.5 °C 1012.4 hPa South 1.6 km/h 4.8 km/h 70% 0 mm 642 W/m2
09:40 24.9 °C 18.6 °C 1012.1 hPa West 1.6 km/h 8 km/h 68% 0 mm 679 W/m2
09:50 25.7 °C 19.1 °C 1012.1 hPa West 8 km/h 9.7 km/h 67% 0 mm 716 W/m2
10:00 26.6 °C 19.7 °C 1012.1 hPa WNW 3.2 km/h 8 km/h 66% 0 mm 745 W/m2
10:10 27.3 °C 19.9 °C 1011.7 hPa WNW 1.6 km/h 8 km/h 64% 0 mm 766 W/m2
10:20 28.2 °C 20.4 °C 1011.7 hPa West 3.2 km/h 8 km/h 63% 0 mm 787 W/m2
10:30 28.9 °C 20.6 °C 1011.7 hPa WSW 3.2 km/h 4.8 km/h 61% 0 mm 806 W/m2
10:40 30.3 °C 21.6 °C 1011.4 hPa NW 3.2 km/h 8 km/h 60% 0 mm 824 W/m2
10:50 31.4 °C 20.7 °C 1011.4 hPa SE 11.3 km/h 16.1 km/h 53% 0 mm 630 W/m2
11:00 32.2 °C 20.1 °C 1011.1 hPa SE 11.3 km/h 19.3 km/h 49% 0 mm 855 W/m2
11:10 32.8 °C 20.3 °C 1010.7 hPa SE 11.3 km/h 20.9 km/h 48% 0 mm 849 W/m2
11:20 33 °C 20.6 °C 1010.7 hPa SE 9.7 km/h 20.9 km/h 48% 0 mm 498 W/m2
11:30 32.8 °C 20.7 °C 1010.7 hPa ESE 8 km/h 20.9 km/h 49% 0 mm 404 W/m2
11:40 32.8 °C 20.7 °C 1010.7 hPa SE 8 km/h 12.9 km/h 49% 0 mm 382 W/m2
11:50 32.8 °C 21 °C 1010.7 hPa SSE 3.2 km/h 11.3 km/h 50% 0 mm 442 W/m2
12:00 32.9 °C 21.1 °C 1010.7 hPa SE 3.2 km/h 8 km/h 50% 0 mm 457 W/m2
12:10 32.8 °C 20.3 °C 1010.4 hPa SSE 9.7 km/h 14.5 km/h 48% 0 mm 258 W/m2
12:20 32.7 °C 20.9 °C 1010.4 hPa ESE 8 km/h 12.9 km/h 50% 0 mm 210 W/m2
12:30 32.5 °C 20.7 °C 1010 hPa ESE 8 km/h 11.3 km/h 50% 0 mm 225 W/m2
12:40 32.4 °C 20.3 °C 1010 hPa ESE 4.8 km/h 12.9 km/h 49% 0 mm 210 W/m2
12:50 32.2 °C 20.1 °C 1010 hPa ENE 4.8 km/h 11.3 km/h 49% 0 mm 160 W/m2
13:00 31.6 °C 19.9 °C 1009.7 hPa NNE 12.9 km/h 20.9 km/h 50% 0 mm 141 W/m2
13:10 30.8 °C 20.2 °C 1010 hPa NNE 8 km/h 19.3 km/h 53% 0 mm 107 W/m2
13:20 30.1 °C 19.4 °C 1009.7 hPa NNE 11.3 km/h 20.9 km/h 53% 0 mm 87 W/m2
13:30 29.6 °C 19.3 °C 1009.7 hPa NNE 14.5 km/h 20.9 km/h 54% 0 mm 131 W/m2
13:40 29.3 °C 19.9 °C 1009.4 hPa NNE 3.2 km/h 16.1 km/h 57% 0 mm 149 W/m2
13:50 28.9 °C 19 °C 1009.4 hPa NNE 11.3 km/h 20.9 km/h 55% 0 mm 148 W/m2
14:00 28.8 °C 19.7 °C 1009.4 hPa North 8 km/h 12.9 km/h 58% 0 mm 272 W/m2
14:10 28.9 °C 19.8 °C 1009.4 hPa North 4.8 km/h 8 km/h 58% 0 mm 311 W/m2
14:20 29 °C 20.2 °C 1009.4 hPa NE 3.2 km/h 9.7 km/h 59% 0 mm 437 W/m2
14:30 29.2 °C 20.1 °C 1009 hPa NE 1.6 km/h 11.3 km/h 58% 0 mm 517 W/m2
14:40 29.4 °C 20.1 °C 1008.7 hPa NNE 3.2 km/h 8 km/h 57% 0 mm 369 W/m2
14:50 29.6 °C 20.2 °C 1008.7 hPa NNW 1.6 km/h 6.4 km/h 57% 0 mm 439 W/m2
15:00 29.9 °C 20.5 °C 1008.4 hPa East 1.6 km/h 4.8 km/h 57% 0 mm 390 W/m2
15:10 30.2 °C 20.7 °C 1008 hPa SW 4.8 km/h 8 km/h 57% 0 mm 324 W/m2
Knjazevac, Serbia
Compliments of Weather Underground - 2 mb